9Z4RG Weather Reports


Display with metric or nautical units.
time (UTC)temp
F
wind
direction
speed
MPH
gust
MPH
rain 1hr
in
rain 24hr
in
rain mn
in
humidity
%
barometer
mb
20210920142517 94 67 0.0 0.0 0.00 0.00 0.00 55 1016.1
20210920141517 0 0 0.0 0.0 0.00 0.00 0.00 100
20210920140519 93 67 0.0 0.0 0.00 0.00 0.00 57 1016.0
20210920135517 93 78 0.0 0.0 0.00 0.00 0.00 58 1015.9
20210920135416 93 90 0.0 0.0 0.00 0.00 0.00 58 1015.9
20210920135318 0 0 0.0 0.0 0.00 0.00 0.00 100
20210920134317 92 112 0.0 0.0 0.00 0.00 0.00 60 1015.9
20210920133319 92 44 0.0 0.0 0.00 0.00 0.00 61 1016.0
20210920133219 92 337 0.0 0.0 0.00 0.00 0.00 61 1016.0
20210920133117 92 337 0.0 0.0 0.00 0.00 0.00 61 1016.0
20210920133017 92 314 0.0 0.0 0.00 0.00 0.00 62 1016.0
20210920132918 92 292 0.0 0.0 0.00 0.00 0.00 62 1016.0
20210920132817 92 292 0.0 0.0 0.00 0.00 0.00 62 1016.0
20210920132716 91 209 0.0 0.0 0.00 0.00 0.00 63 1015.9
20210920132617 91 90 0.0 0.0 0.00 0.00 0.00 62 1015.9
20210920131617 91 67 0.0 0.0 0.00 0.00 0.00 63 1015.9
20210920130619 89 202 0.0 0.0 0.00 0.00 0.00 65 1016.0
20210920125618 88 112 0.0 0.0 0.00 0.00 0.00 66 1015.9
20210920124618 88 112 0.0 0.0 0.00 0.00 0.00 67 1015.9
20210920124517 88 117 0.0 0.0 0.00 0.00 0.00 67 1015.8
20210920124418 87 95 0.0 0.0 0.00 0.00 0.00 68 1015.8
20210920124318 87 302 0.0 0.0 0.00 0.00 0.00 68 1015.8
20210920123319 85 100 0.0 0.0 0.00 0.00 0.00 72 1015.7
20210920123218 85 69 0.0 0.0 0.00 0.00 0.00 72 1015.7
20210920123117 85 22 0.0 0.0 0.00 0.00 0.00 72 1015.7
20210920123017 85 22 0.0 0.0 0.00 0.00 0.00 72 1015.7
20210920122918 85 359 0.0 0.0 0.00 0.00 0.00 72 1015.7
20210920121919 84 67 0.0 0.0 0.00 0.00 0.00 74 1015.7
20210920121818 84 80 0.0 0.0 0.00 0.00 0.00 74 1015.6
20210920120817 83 45 0.0 0.0 0.00 0.00 0.00 75 1015.7
20210920120719 83 45 0.0 0.0 0.00 0.00 0.00 75 1015.7
20210920115719 82 337 0.0 0.0 0.00 0.00 0.00 77 1015.6
20210920114816 0 0 0.0 0.0 0.00 0.00 0.00 100
20210920114717 0 0 0.0 0.0 0.00 0.00 0.00 100
20210920114619 0 0 0.0 0.0 0.00 0.00 0.00 100
20210920114516 0 0 0.0 0.0 0.00 0.00 0.00 100
20210920114417 0 0 0.0 0.0 0.00 0.00 0.00 100
20210920113416 0 0 0.0 0.0 0.00 0.00 0.00 100
20210920113316 0 0 0.0 0.0 0.00 0.00 0.00 100
20210920112318 0 0 0.0 0.0 0.00 0.00 0.00 100
20210920111317 0 0 0.0 0.0 0.00 0.00 0.00 100
20210920111219 0 0 0.0 0.0 0.00 0.00 0.00 100
20210920110315 78 22 0.0 0.0 0.00 0.00 0.00 84 1014.8
20210920105316 78 22 0.0 0.0 0.00 0.00 0.00 86 1014.7
20210920104316 77 48 0.0 0.0 0.00 0.00 0.00 86 1014.5
20210920104214 76 67 0.0 0.0 0.00 0.00 0.00 86 1014.6
20210920104118 76 67 0.0 0.0 0.00 0.00 0.00 86 1014.6
20210920103015 76 67 0.0 0.0 0.00 0.00 0.00 88 1014.4
20210920102017 76 67 0.0 0.0 0.00 0.00 0.00 87 1014.3
20210920101016 75 67 0.0 0.0 0.00 0.00 0.00 87 1014.0
20210920100916 75 67 0.0 0.0 0.00 0.00 0.00 88 1014.1
20210920095917 75 67 0.0 0.0 0.00 0.00 0.00 88 1014.0
20210920094916 75 67 0.0 0.0 0.00 0.00 0.00 88 1014.1
20210920093917 75 22 0.0 0.0 0.00 0.00 0.00 87 1014.0
20210920093814 75 22 0.0 0.0 0.00 0.00 0.00 86 1014.0
20210920093614 75 22 0.0 0.0 0.00 0.00 0.00 86 1014.0
20210920093515 75 22 0.0 0.0 0.00 0.00 0.00 86 1014.0
20210920093415 75 22 0.0 0.0 0.00 0.00 0.00 86 1014.0
20210920093316 75 22 0.0 0.0 0.00 0.00 0.00 87 1013.9
20210920093215 75 22 0.0 0.0 0.00 0.00 0.00 87 1014.0
20210920093114 75 22 0.0 0.0 0.00 0.00 0.00 87 1014.0
20210920092116 76 22 0.0 0.0 0.00 0.00 0.00 87 1013.9
20210920092016 76 22 0.0 0.0 0.00 0.00 0.00 87 1014.1
20210920091916 76 22 0.0 0.0 0.00 0.00 0.00 87 1014.0
20210920091815 76 22 0.0 0.0 0.00 0.00 0.00 87 1013.9
20210920090817 76 22 0.0 0.0 0.00 0.00 0.00 87 1013.9
20210920085816 76 22 0.0 0.0 0.00 0.00 0.00 87 1013.9
20210920084815 76 90 0.0 0.0 0.00 0.00 0.00 87 1013.8
20210920083816 76 90 0.0 0.0 0.00 0.00 0.00 87 1013.8
20210920083714 76 90 0.0 0.0 0.00 0.00 0.00 86 1013.8
20210920083616 76 90 0.0 0.0 0.00 0.00 0.00 86 1013.8
20210920083515 76 90 0.0 0.0 0.00 0.00 0.00 87 1013.7
20210920083417 76 90 0.0 0.0 0.00 0.00 0.00 87 1013.7
20210920082516 76 90 0.0 0.0 0.00 0.00 0.00 87 1013.7
20210920082417 75 90 0.0 0.0 0.00 0.00 0.00 86 1013.7
20210920082316 75 90 0.0 0.0 0.00 0.00 0.00 87 1013.6
20210920081314 75 90 0.0 0.0 0.00 0.00 0.00 87 1013.6
20210920080315 76 90 0.0 0.0 0.00 0.00 0.00 87 1013.5
20210920080217 76 90 0.0 0.0 0.00 0.00 0.00 87 1013.5
20210920075314 75 90 0.0 0.0 0.00 0.00 0.00 86 1013.5
20210920074316 76 90 0.0 0.0 0.00 0.00 0.00 87 1013.3
20210920074217 76 90 0.0 0.0 0.00 0.00 0.00 87 1013.3
20210920074115 76 90 0.0 0.0 0.00 0.00 0.00 86 1013.3
20210920073116 76 90 0.0 0.0 0.00 0.00 0.00 87 1013.4
20210920073014 76 90 0.0 0.0 0.00 0.00 0.00 87 1013.4
20210920072016 76 90 0.0 0.0 0.00 0.00 0.00 87 1013.4
20210920071916 76 90 0.0 0.0 0.00 0.00 0.00 86 1013.3
20210920070915 76 90 0.0 1.0 0.00 0.00 0.00 87 1013.4
20210920070814 76 90 0.0 1.0 0.00 0.00 0.00 87 1013.4
20210920070716 76 90 0.0 0.0 0.00 0.00 0.00 87 1013.3
20210920065716 76 90 0.0 0.0 0.00 0.00 0.00 87 1013.5
20210920064717 76 90 0.0 0.0 0.00 0.00 0.00 86 1013.3
20210920063717 76 90 0.0 0.0 0.00 0.00 0.00 86 1013.5
20210920063616 76 90 0.0 0.0 0.00 0.00 0.00 87 1013.5
20210920062617 76 67 0.0 0.0 0.00 0.00 0.00 87 1013.5
20210920061616 76 67 0.0 0.0 0.00 0.00 0.00 87 1013.6
20210920060615 76 315 0.0 0.0 0.00 0.00 0.00 87 1013.8
20210920055617 76 315 0.0 0.0 0.00 0.00 0.00 86 1013.8
20210920055517 76 315 0.0 0.0 0.00 0.00 0.00 87 1013.9
20210920054516 76 45 0.0 0.0 0.00 0.00 0.00 87 1013.9
20210920054415 76 45 0.0 0.0 0.00 0.00 0.00 87 1014.0
20210920054316 76 45 0.0 0.0 0.00 0.00 0.00 87 1013.9
20210920053316 77 45 0.0 0.0 0.00 0.00 0.00 87 1013.9
20210920052314 77 45 0.0 0.0 0.00 0.00 0.00 86 1013.9
20210920051315 77 45 0.0 0.0 0.00 0.00 0.00 85 1014.1
20210920051214 77 45 0.0 0.0 0.00 0.00 0.00 86 1014.1
20210920051116 77 45 0.0 0.0 0.00 0.00 0.00 86 1014.1
20210920050215 77 45 0.0 0.0 0.00 0.00 0.00 85 1014.1
20210920050116 77 45 0.0 0.0 0.00 0.00 0.00 85 1014.1
20210920050015 77 45 0.0 0.0 0.00 0.00 0.00 86 1014.2
20210920045915 77 45 0.0 0.0 0.00 0.00 0.00 86 1014.1
20210920045014 77 45 0.0 0.0 0.00 0.00 0.00 85 1014.3
20210920044014 77 45 0.0 0.0 0.00 0.00 0.00 85 1014.4
20210920043915 77 45 0.0 0.0 0.00 0.00 0.00 85 1014.4
20210920043817 77 45 0.0 0.0 0.00 0.00 0.00 85 1014.5
20210920042815 77 45 0.0 0.0 0.00 0.00 0.00 85 1014.6
20210920042714 77 45 0.0 0.0 0.00 0.00 0.00 85 1014.6
20210920042616 77 45 0.0 0.0 0.00 0.00 0.00 85 1014.5
20210920041616 78 45 0.0 0.0 0.00 0.00 0.00 85 1014.8
20210920040714 78 45 0.0 0.0 0.00 0.00 0.00 83 1014.7
20210920040615 78 45 0.0 0.0 0.00 0.00 0.00 84 1014.8
20210920040515 78 45 0.0 0.0 0.00 0.00 0.00 84 1014.7
20210920040418 78 45 0.0 0.0 0.00 0.00 0.00 84 1014.7
20210920035422 78 45 0.0 0.0 0.00 0.00 0.00 84 1014.8
20210920034423 78 45 0.0 0.0 0.00 0.00 0.00 83 1014.8
20210920034324 78 45 0.0 0.0 0.00 0.00 0.00 84 1014.8
20210920034223 78 45 0.0 0.0 0.00 0.00 0.00 84 1014.7
20210920033224 78 45 0.0 0.0 0.00 0.00 0.00 84 1014.6
20210920033124 78 45 0.0 0.0 0.00 0.00 0.00 83 1014.6
20210920033022 78 45 0.0 0.0 0.00 0.00 0.00 84 1014.6
20210920032024 78 45 0.0 0.0 0.00 0.00 0.00 83 1014.7
20210920031922 78 45 0.0 0.0 0.00 0.00 0.00 83 1014.7
20210920031823 78 45 0.0 0.0 0.00 0.00 0.00 83 1014.6
20210920030923 78 45 0.0 0.0 0.00 0.00 0.00 81 1014.6
20210920030823 78 45 0.0 0.0 0.00 0.00 0.00 82 1014.6
20210920025922 79 45 0.0 0.0 0.00 0.00 0.00 81 1014.8
20210920024924 79 45 0.0 0.0 0.00 0.00 0.00 80 1014.8
20210920023922 79 45 0.0 0.0 0.00 0.00 0.00 80 1014.6
20210920022923 79 45 0.0 1.0 0.00 0.00 0.00 81 1014.6
20210920021923 79 45 0.0 0.0 0.00 0.00 0.00 80 1014.7
20210920021822 79 45 0.0 0.0 0.00 0.00 0.00 81 1014.6
20210920021724 79 45 0.0 0.0 0.00 0.00 0.00 80 1014.7
20210920021624 80 45 0.0 0.0 0.00 0.00 0.00 79 1014.6
20210920020722 80 45 0.0 0.0 0.00 0.00 0.00 80 1014.5
20210920020623 80 45 0.0 0.0 0.00 0.00 0.00 80 1014.5
20210920015722 80 45 0.0 0.0 0.00 0.00 0.00 78 1014.5
20210920015624 80 45 0.0 0.0 0.00 0.00 0.00 78 1014.5
20210920015523 80 45 0.0 0.0 0.00 0.00 0.00 78 1014.5
20210920014523 80 45 0.0 0.0 0.00 0.00 0.00 78 1014.5
20210920014423 80 45 0.0 0.0 0.00 0.00 0.00 78 1014.4
20210920014322 80 45 0.0 0.0 0.00 0.00 0.00 78 1014.4
20210920014224 80 45 0.0 0.0 0.00 0.00 0.00 77 1014.4
20210920013224 81 45 1.0 1.0 0.00 0.00 0.00 77 1014.4
20210920013126 81 45 0.0 1.0 0.00 0.00 0.00 77 1014.4
20210920013024 81 45 0.0 0.0 0.00 0.00 0.00 77 1014.3
20210920012122 81 157 0.0 0.0 0.00 0.00 0.00 77 1014.2
20210920012023 81 157 0.0 0.0 0.00 0.00 0.00 76 1014.1
20210920011024 81 157 0.0 0.0 0.00 0.00 0.00 76 1014.0
20210920010123 81 157 0.0 0.0 0.00 0.00 0.00 76 1013.8
20210920010022 81 157 0.0 0.0 0.00 0.00 0.00 76 1013.8
20210920005923 81 157 0.0 0.0 0.00 0.00 0.00 76 1013.8
20210920005022 81 157 0.0 0.0 0.00 0.00 0.00 76 1013.8
20210920004025 81 157 0.0 0.0 0.00 0.00 0.00 76 1013.6
20210920003122 82 157 0.0 0.0 0.00 0.00 0.00 76 1013.7
20210920003025 82 157 0.0 0.0 0.00 0.00 0.00 75 1013.6
20210920002025 82 315 0.0 0.0 0.00 0.00 0.00 75 1013.5
20210920001923 82 300 0.0 0.0 0.00 0.00 0.00 76 1013.4
20210920001822 82 292 0.0 0.0 0.00 0.00 0.00 76 1013.5
20210920000822 82 310 0.0 2.0 0.00 0.00 0.00 76 1013.1
20210919235825 82 315 0.0 0.0 0.00 0.00 0.00 75 1012.9
20210919234922 82 48 0.0 1.0 0.00 0.00 0.00 75 1012.9
20210919234824 82 61 0.0 2.0 0.00 0.00 0.00 75 1012.9
20210919234722 82 112 0.0 0.0 0.00 0.00 0.00 74 1012.9
20210919233722 83 104 0.0 1.0 0.00 0.00 0.00 73 1012.8
20210919232723 83 360 0.0 0.0 0.00 0.00 0.00 74 1012.6
20210919231722 83 292 0.0 0.0 0.00 0.00 0.00 73 1012.6
20210919230723 83 292 0.0 0.0 0.00 0.00 0.00 73 1012.4
20210919230622 83 301 0.0 2.0 0.00 0.00 0.00 73 1012.4
20210919225622 84 67 0.0 0.0 0.00 0.00 0.00 71 1012.4
20210919224721 84 56 0.0 0.0 0.00 0.00 0.00 72 1012.2
20210919223724 84 180 0.0 0.0 0.00 0.00 0.00 70 1012.2
20210919223622 84 180 0.0 0.0 0.00 0.00 0.00 70 1012.2
20210919223522 84 180 0.0 0.0 0.00 0.00 0.00 71 1012.2
20210919222522 85 337 0.0 0.0 0.00 0.00 0.00 70 1012.2
20210919222323 85 337 0.0 0.0 0.00 0.00 0.00 69 1012.1
20210919222221 85 337 0.0 0.0 0.00 0.00 0.00 68 1012.0
20210919222123 85 337 0.0 0.0 0.00 0.00 0.00 69 1012.1
20210919221222 85 292 0.0 1.0 0.00 0.00 0.00 69 1012.1
20210919220224 86 299 0.0 0.0 0.00 0.00 0.00 67 1012.0
20210919220121 86 312 0.0 0.0 0.00 0.00 0.00 66 1012.0
20210919215123 86 32 1.0 3.0 0.00 0.00 0.00 66 1011.9
20210919214122 87 168 0.0 0.0 0.00 0.00 0.00 65 1012.0
20210919213123 87 292 0.0 0.0 0.00 0.00 0.00 63 1011.9
20210919213022 87 292 0.0 0.0 0.00 0.00 0.00 64 1011.8
20210919212022 88 292 0.0 0.0 0.00 0.00 0.00 63 1011.8
20210919211923 88 292 0.0 0.0 0.00 0.00 0.00 63 1011.7
20210919211822 88 292 0.0 0.0 0.00 0.00 0.00 62 1011.8
20210919211722 88 296 0.0 0.0 0.00 0.00 0.00 63 1011.7
20210919211623 88 301 0.0 0.0 0.00 0.00 0.00 62 1011.8
20210919211522 88 310 0.0 1.0 0.00 0.00 0.00 62 1011.7
20210919210525 88 164 0.0 0.0 0.00 0.00 0.00 61 1011.7
20210919205523 89 106 0.0 0.0 0.00 0.00 0.00 60 1011.8
20210919205423 89 89 0.0 1.0 0.00 0.00 0.00 59 1011.8
20210919204423 90 3 0.0 0.0 0.00 0.00 0.00 59 1011.7
20210919204325 90 292 0.0 0.0 0.00 0.00 0.00 59 1011.7
20210919204221 90 292 0.0 0.0 0.00 0.00 0.00 60 1011.7
20210919204122 90 307 0.0 0.0 0.00 0.00 0.00 60 1011.7
20210919203122 90 292 0.0 0.0 0.00 0.00 0.00 59 1011.7
20210919203021 90 292 0.0 0.0 0.00 0.00 0.00 59 1011.6
20210919202024 90 63 0.0 0.0 0.00 0.00 0.00 58 1011.7
20210919201922 91 45 1.0 2.0 0.00 0.00 0.00 58 1011.7
20210919200923 92 37 1.0 1.0 0.00 0.00 0.00 56 1011.7
20210919195923 94 80 0.0 1.0 0.00 0.00 0.00 54 1011.6
20210919194924 95 292 0.0 2.0 0.00 0.00 0.00 51 1011.7
20210919194022 95 157 0.0 0.0 0.00 0.00 0.00 52 1011.5
20210919193122 95 292 0.0 1.0 0.00 0.00 0.00 51 1011.5
20210919192123 96 351 0.0 0.0 0.00 0.00 0.00 51 1011.5
20210919191222 96 52 0.0 1.0 0.00 0.00 0.00 51 1011.6
20210919191125 96 58 0.0 1.0 0.00 0.00 0.00 51 1011.7
20210919190222 96 301 0.0 0.0 0.00 0.00 0.00 51 1011.7
20210919185222 96 337 0.0 0.0 0.00 0.00 0.00 51 1012.0
20210919185122 96 337 0.0 0.0 0.00 0.00 0.00 52 1011.9
20210919184123 95 34 0.0 2.0 0.00 0.00 0.00 52 1012.1
20210919183122 95 315 0.0 2.0 0.00 0.00 0.00 52 1012.1
20210919182123 96 292 0.0 1.0 0.00 0.00 0.00 52 1012.2
20210919181122 96 210 0.0 1.0 0.00 0.00 0.00 53 1012.4
20210919180123 95 315 0.0 1.0 0.00 0.00 0.00 55 1012.4
20210919180023 95 58 0.0 0.0 0.00 0.00 0.00 55 1012.4
20210919175023 95 49 0.0 0.0 0.00 0.01 0.00 55 1012.8
20210919174923 95 326 0.0 1.0 0.00 0.01 0.00 56 1012.8
20210919173923 95 316 0.0 1.0 0.00 0.01 0.00 55 1012.8
20210919172922 96 273 0.0 1.0 0.00 0.01 0.00 56 1013.1
20210919172823 96 292 1.0 3.0 0.00 0.01 0.00 55 1013.1
20210919172721 95 352 0.0 0.0 0.00 0.01 0.00 56 1013.1
20210919172624 95 337 0.0 2.0 0.00 0.01 0.00 55 1013.1
20210919172522 95 345 0.0 3.0 0.00 0.01 0.00 56 1013.1
20210919171523 95 330 1.0 2.0 0.00 0.01 0.00 56 1013.5
20210919170523 95 73 0.0 4.0 0.00 0.01 0.00 57 1013.7
20210919165523 94 22 0.0 0.0 0.00 0.01 0.00 57 1013.9
20210919165423 94 78 0.0 0.0 0.00 0.01 0.00 56 1013.9
20210919165323 95 72 0.0 0.0 0.00 0.01 0.00 56 1013.9
20210919164423 94 360 0.0 0.0 0.00 0.02 0.00 58 1014.0
20210919164323 94 360 0.0 2.0 0.00 0.02 0.00 58 1014.0
20210919163321 94 352 0.0 0.0 0.00 0.14 0.00 57 1014.2
20210919162322 94 320 0.0 1.0 0.00 0.19 0.00 58 1014.6
20210919161422 94 9 0.0 1.0 0.00 0.19 0.00 57 1014.7
20210919161321 94 355 0.0 2.0 0.00 0.19 0.00 57 1014.7
20210919161222 94 19 0.0 2.0 0.00 0.19 0.00 57 1014.8
20210919160223 95 326 1.0 3.0 0.00 0.19 0.00 56 1014.9
20210919160124 95 315 0.0 0.0 0.00 0.19 0.00 57 1014.9
20210919155121 95 300 0.0 1.0 0.00 0.19 0.00 56 1015.0
20210919154122 95 337 1.0 1.0 0.00 0.19 0.00 56 1015.2
20210919153121 95 347 0.0 0.0 0.00 0.19 0.00 56 1015.4
20210919152123 95 348 1.0 2.0 0.00 0.19 0.00 55 1015.3
20210919151222 95 337 0.0 1.0 0.00 0.19 0.00 56 1015.4
20210919150223 94 337 0.0 2.0 0.00 0.19 0.00 57 1015.3
20210919145222 94 44 0.0 0.0 0.00 0.19 0.00 57 1015.6
20210919144222 95 9 0.0 0.0 0.00 0.19 0.00 56 1015.7
20210919144124 95 343 0.0 1.0 0.00 0.19 0.00 56 1015.7
20210919144022 95 352 0.0 2.0 0.00 0.19 0.00 57 1015.7
20210919143923 95 47 0.0 1.0 0.00 0.19 0.00 57 1015.7
20210919142922 95 157 0.0 0.0 0.00 0.19 0.00 57 1015.7